sensor_id;sensor_type;location;lat;lon;timestamp;P1;durP1;ratioP1;P2;durP2;ratioP2
22778;SDS011;11556;51.194;3.800;2024-03-02T00:00:09;15.57;;;4.60;;
22778;SDS011;11556;51.194;3.800;2024-03-02T00:02:42;10.77;;;5.03;;
22778;SDS011;11556;51.194;3.800;2024-03-02T00:05:12;11.15;;;5.32;;
22778;SDS011;11556;51.194;3.800;2024-03-02T00:07:41;9.57;;;4.70;;
22778;SDS011;11556;51.194;3.800;2024-03-02T00:10:08;12.55;;;3.42;;
22778;SDS011;11556;51.194;3.800;2024-03-02T00:12:38;6.07;;;3.58;;
22778;SDS011;11556;51.194;3.800;2024-03-02T00:15:05;7.78;;;3.75;;
22778;SDS011;11556;51.194;3.800;2024-03-02T00:17:52;8.45;;;3.40;;
22778;SDS011;11556;51.194;3.800;2024-03-02T00:20:20;7.88;;;2.85;;
22778;SDS011;11556;51.194;3.800;2024-03-02T00:22:47;8.27;;;4.03;;
22778;SDS011;11556;51.194;3.800;2024-03-02T00:25:13;7.00;;;3.40;;
22778;SDS011;11556;51.194;3.800;2024-03-02T00:27:39;5.90;;;3.65;;
22778;SDS011;11556;51.194;3.800;2024-03-02T00:33:10;11.23;;;5.65;;
22778;SDS011;11556;51.194;3.800;2024-03-02T00:35:36;8.65;;;4.47;;
22778;SDS011;11556;51.194;3.800;2024-03-02T00:38:05;7.75;;;4.05;;
22778;SDS011;11556;51.194;3.800;2024-03-02T00:40:31;9.65;;;4.65;;
22778;SDS011;11556;51.194;3.800;2024-03-02T00:42:57;9.77;;;4.80;;
22778;SDS011;11556;51.194;3.800;2024-03-02T00:45:24;10.68;;;4.45;;
22778;SDS011;11556;51.194;3.800;2024-03-02T00:47:50;10.90;;;4.43;;
22778;SDS011;11556;51.194;3.800;2024-03-02T00:50:17;7.65;;;4.55;;
22778;SDS011;11556;51.194;3.800;2024-03-02T00:52:42;9.48;;;4.38;;
22778;SDS011;11556;51.194;3.800;2024-03-02T00:55:08;8.88;;;4.97;;
22778;SDS011;11556;51.194;3.800;2024-03-02T00:57:34;12.85;;;5.22;;
22778;SDS011;11556;51.194;3.800;2024-03-02T01:00:00;7.93;;;4.65;;
22778;SDS011;11556;51.194;3.800;2024-03-02T01:02:26;8.07;;;4.22;;
22778;SDS011;11556;51.194;3.800;2024-03-02T01:04:54;8.60;;;4.25;;
22778;SDS011;11556;51.194;3.800;2024-03-02T01:07:19;8.40;;;4.55;;
22778;SDS011;11556;51.194;3.800;2024-03-02T01:09:45;9.45;;;4.65;;
22778;SDS011;11556;51.194;3.800;2024-03-02T01:12:11;9.85;;;4.63;;
22778;SDS011;11556;51.194;3.800;2024-03-02T01:14:36;9.63;;;4.45;;
22778;SDS011;11556;51.194;3.800;2024-03-02T01:17:02;5.03;;;2.85;;
22778;SDS011;11556;51.194;3.800;2024-03-02T01:19:29;8.52;;;3.30;;
22778;SDS011;11556;51.194;3.800;2024-03-02T01:21:55;9.25;;;4.38;;
22778;SDS011;11556;51.194;3.800;2024-03-02T01:24:20;6.28;;;4.05;;
22778;SDS011;11556;51.194;3.800;2024-03-02T01:26:46;10.90;;;4.20;;
22778;SDS011;11556;51.194;3.800;2024-03-02T01:29:12;5.82;;;3.17;;
22778;SDS011;11556;51.194;3.800;2024-03-02T01:31:37;8.60;;;4.35;;
22778;SDS011;11556;51.194;3.800;2024-03-02T01:34:04;6.00;;;3.97;;
22778;SDS011;11556;51.194;3.800;2024-03-02T01:36:30;6.75;;;3.15;;
22778;SDS011;11556;51.194;3.800;2024-03-02T01:38:55;3.90;;;2.20;;
22778;SDS011;11556;51.194;3.800;2024-03-02T01:41:21;4.65;;;2.15;;
22778;SDS011;11556;51.194;3.800;2024-03-02T01:43:47;4.75;;;2.85;;
22778;SDS011;11556;51.194;3.800;2024-03-02T01:46:12;4.85;;;2.85;;
22778;SDS011;11556;51.194;3.800;2024-03-02T01:48:38;7.10;;;3.53;;
22778;SDS011;11556;51.194;3.800;2024-03-02T01:51:03;5.22;;;3.30;;
22778;SDS011;11556;51.194;3.800;2024-03-02T01:53:31;8.18;;;3.85;;
22778;SDS011;11556;51.194;3.800;2024-03-02T01:55:57;6.78;;;2.70;;
22778;SDS011;11556;51.194;3.800;2024-03-02T01:58:24;6.28;;;2.90;;
22778;SDS011;11556;51.194;3.800;2024-03-02T02:00:49;5.93;;;2.88;;
22778;SDS011;11556;51.194;3.800;2024-03-02T02:03:15;6.13;;;3.08;;
22778;SDS011;11556;51.194;3.800;2024-03-02T02:05:44;5.47;;;2.42;;
22778;SDS011;11556;51.194;3.800;2024-03-02T02:08:10;7.93;;;2.70;;
22778;SDS011;11556;51.194;3.800;2024-03-02T02:10:36;6.20;;;3.10;;
22778;SDS011;11556;51.194;3.800;2024-03-02T02:13:02;8.27;;;3.60;;
22778;SDS011;11556;51.194;3.800;2024-03-02T02:15:30;8.35;;;3.95;;
22778;SDS011;11556;51.194;3.800;2024-03-02T02:17:57;12.88;;;6.00;;
22778;SDS011;11556;51.194;3.800;2024-03-02T02:20:23;11.77;;;5.82;;
22778;SDS011;11556;51.194;3.800;2024-03-02T02:23:07;11.68;;;5.90;;
22778;SDS011;11556;51.194;3.800;2024-03-02T02:25:35;9.57;;;3.80;;
22778;SDS011;11556;51.194;3.800;2024-03-02T02:28:00;13.05;;;4.82;;
22778;SDS011;11556;51.194;3.800;2024-03-02T02:30:30;12.77;;;5.05;;
22778;SDS011;11556;51.194;3.800;2024-03-02T02:32:57;9.40;;;4.78;;
22778;SDS011;11556;51.194;3.800;2024-03-02T02:35:23;11.93;;;5.28;;
22778;SDS011;11556;51.194;3.800;2024-03-02T02:37:49;8.02;;;4.35;;
22778;SDS011;11556;51.194;3.800;2024-03-02T02:40:16;10.52;;;4.13;;
22778;SDS011;11556;51.194;3.800;2024-03-02T02:42:43;8.18;;;3.97;;
22778;SDS011;11556;51.194;3.800;2024-03-02T02:45:09;14.02;;;5.85;;
22778;SDS011;11556;51.194;3.800;2024-03-02T02:47:36;9.43;;;5.35;;
22778;SDS011;11556;51.194;3.800;2024-03-02T02:50:02;14.40;;;5.22;;
22778;SDS011;11556;51.194;3.800;2024-03-02T02:52:32;9.25;;;4.40;;
22778;SDS011;11556;51.194;3.800;2024-03-02T02:55:02;10.30;;;5.50;;
22778;SDS011;11556;51.194;3.800;2024-03-02T02:57:28;12.55;;;6.10;;
22778;SDS011;11556;51.194;3.800;2024-03-02T02:59:56;8.23;;;4.95;;
22778;SDS011;11556;51.194;3.800;2024-03-02T03:02:22;10.07;;;5.60;;
22778;SDS011;11556;51.194;3.800;2024-03-02T03:04:47;13.57;;;6.35;;
22778;SDS011;11556;51.194;3.800;2024-03-02T03:07:13;10.38;;;5.03;;
22778;SDS011;11556;51.194;3.800;2024-03-02T03:09:38;12.77;;;5.90;;
22778;SDS011;11556;51.194;3.800;2024-03-02T03:12:04;14.90;;;5.90;;
22778;SDS011;11556;51.194;3.800;2024-03-02T03:14:30;13.15;;;6.40;;
22778;SDS011;11556;51.194;3.800;2024-03-02T03:16:55;15.05;;;5.53;;
22778;SDS011;11556;51.194;3.800;2024-03-02T03:19:21;15.02;;;4.63;;
22778;SDS011;11556;51.194;3.800;2024-03-02T03:21:47;7.80;;;4.38;;
22778;SDS011;11556;51.194;3.800;2024-03-02T03:24:12;12.70;;;5.35;;
22778;SDS011;11556;51.194;3.800;2024-03-02T03:26:38;14.93;;;5.50;;
22778;SDS011;11556;51.194;3.800;2024-03-02T03:29:03;10.75;;;5.30;;
22778;SDS011;11556;51.194;3.800;2024-03-02T03:31:29;10.80;;;4.90;;
22778;SDS011;11556;51.194;3.800;2024-03-02T03:33:55;17.15;;;6.03;;
22778;SDS011;11556;51.194;3.800;2024-03-02T03:36:20;19.25;;;6.13;;
22778;SDS011;11556;51.194;3.800;2024-03-02T03:38:46;13.52;;;6.32;;
22778;SDS011;11556;51.194;3.800;2024-03-02T03:41:12;18.02;;;8.18;;
22778;SDS011;11556;51.194;3.800;2024-03-02T03:43:38;17.05;;;7.78;;
22778;SDS011;11556;51.194;3.800;2024-03-02T03:46:04;12.55;;;7.00;;
22778;SDS011;11556;51.194;3.800;2024-03-02T03:48:29;26.40;;;11.48;;
22778;SDS011;11556;51.194;3.800;2024-03-02T03:50:56;15.38;;;5.25;;
22778;SDS011;11556;51.194;3.800;2024-03-02T03:53:22;13.70;;;4.18;;
22778;SDS011;11556;51.194;3.800;2024-03-02T03:55:47;30.83;;;12.77;;
22778;SDS011;11556;51.194;3.800;2024-03-02T03:58:14;24.42;;;11.10;;
22778;SDS011;11556;51.194;3.800;2024-03-02T04:00:41;25.83;;;10.20;;
22778;SDS011;11556;51.194;3.800;2024-03-02T04:03:07;41.08;;;13.75;;
22778;SDS011;11556;51.194;3.800;2024-03-02T04:05:33;18.65;;;5.85;;
22778;SDS011;11556;51.194;3.800;2024-03-02T04:07:58;7.97;;;4.00;;
22778;SDS011;11556;51.194;3.800;2024-03-02T04:10:25;11.05;;;5.65;;
22778;SDS011;11556;51.194;3.800;2024-03-02T04:12:50;17.65;;;9.27;;
22778;SDS011;11556;51.194;3.800;2024-03-02T04:15:16;12.35;;;4.70;;
22778;SDS011;11556;51.194;3.800;2024-03-02T04:17:43;10.90;;;6.28;;
22778;SDS011;11556;51.194;3.800;2024-03-02T04:20:09;12.68;;;5.10;;
22778;SDS011;11556;51.194;3.800;2024-03-02T04:22:37;14.35;;;5.90;;
22778;SDS011;11556;51.194;3.800;2024-03-02T04:25:03;13.93;;;6.15;;
22778;SDS011;11556;51.194;3.800;2024-03-02T04:27:29;18.73;;;7.10;;
22778;SDS011;11556;51.194;3.800;2024-03-02T04:29:56;18.88;;;4.78;;
22778;SDS011;11556;51.194;3.800;2024-03-02T04:32:22;8.75;;;2.85;;
22778;SDS011;11556;51.194;3.800;2024-03-02T04:34:48;7.45;;;2.90;;
22778;SDS011;11556;51.194;3.800;2024-03-02T04:37:13;9.23;;;2.95;;
22778;SDS011;11556;51.194;3.800;2024-03-02T04:39:39;10.27;;;3.47;;
22778;SDS011;11556;51.194;3.800;2024-03-02T04:42:05;8.57;;;3.00;;
22778;SDS011;11556;51.194;3.800;2024-03-02T04:44:31;12.93;;;3.30;;
22778;SDS011;11556;51.194;3.800;2024-03-02T04:46:56;6.43;;;2.60;;
22778;SDS011;11556;51.194;3.800;2024-03-02T04:49:22;6.15;;;2.75;;
22778;SDS011;11556;51.194;3.800;2024-03-02T04:51:48;15.52;;;4.97;;
22778;SDS011;11556;51.194;3.800;2024-03-02T04:54:14;9.50;;;3.20;;
22778;SDS011;11556;51.194;3.800;2024-03-02T04:56:39;10.75;;;2.42;;
22778;SDS011;11556;51.194;3.800;2024-03-02T04:59:09;10.68;;;2.88;;
22778;SDS011;11556;51.194;3.800;2024-03-02T05:01:35;10.90;;;4.05;;
22778;SDS011;11556;51.194;3.800;2024-03-02T05:04:01;13.07;;;5.32;;
22778;SDS011;11556;51.194;3.800;2024-03-02T05:06:27;7.80;;;3.80;;
22778;SDS011;11556;51.194;3.800;2024-03-02T05:08:52;13.52;;;5.03;;
22778;SDS011;11556;51.194;3.800;2024-03-02T05:11:18;15.82;;;6.22;;
22778;SDS011;11556;51.194;3.800;2024-03-02T05:14:01;9.60;;;3.97;;
22778;SDS011;11556;51.194;3.800;2024-03-02T05:16:28;9.57;;;4.32;;
22778;SDS011;11556;51.194;3.800;2024-03-02T05:18:53;7.80;;;3.50;;
22778;SDS011;11556;51.194;3.800;2024-03-02T05:21:19;11.20;;;4.95;;
22778;SDS011;11556;51.194;3.800;2024-03-02T05:23:45;14.13;;;7.57;;
22778;SDS011;11556;51.194;3.800;2024-03-02T05:26:10;10.85;;;4.97;;
22778;SDS011;11556;51.194;3.800;2024-03-02T05:28:38;13.30;;;6.35;;
22778;SDS011;11556;51.194;3.800;2024-03-02T05:31:04;14.52;;;4.78;;
22778;SDS011;11556;51.194;3.800;2024-03-02T05:33:30;10.95;;;4.70;;
22778;SDS011;11556;51.194;3.800;2024-03-02T05:35:57;21.40;;;9.98;;
22778;SDS011;11556;51.194;3.800;2024-03-02T05:38:23;12.93;;;5.82;;
22778;SDS011;11556;51.194;3.800;2024-03-02T05:40:49;23.35;;;10.02;;
22778;SDS011;11556;51.194;3.800;2024-03-02T05:43:15;22.23;;;9.63;;
22778;SDS011;11556;51.194;3.800;2024-03-02T05:45:40;32.67;;;13.63;;
22778;SDS011;11556;51.194;3.800;2024-03-02T05:48:07;19.85;;;7.82;;
22778;SDS011;11556;51.194;3.800;2024-03-02T05:50:33;39.53;;;17.95;;
22778;SDS011;11556;51.194;3.800;2024-03-02T05:52:58;26.33;;;11.38;;
22778;SDS011;11556;51.194;3.800;2024-03-02T05:55:24;57.42;;;26.10;;
22778;SDS011;11556;51.194;3.800;2024-03-02T05:57:50;36.20;;;18.42;;
22778;SDS011;11556;51.194;3.800;2024-03-02T06:00:30;45.70;;;20.67;;
22778;SDS011;11556;51.194;3.800;2024-03-02T06:02:56;13.85;;;4.72;;
22778;SDS011;11556;51.194;3.800;2024-03-02T06:05:22;8.20;;;3.78;;
22778;SDS011;11556;51.194;3.800;2024-03-02T06:07:48;7.75;;;3.17;;
22778;SDS011;11556;51.194;3.800;2024-03-02T06:10:14;8.23;;;3.25;;
22778;SDS011;11556;51.194;3.800;2024-03-02T06:12:40;5.53;;;1.60;;
22778;SDS011;11556;51.194;3.800;2024-03-02T06:15:05;5.32;;;1.58;;
22778;SDS011;11556;51.194;3.800;2024-03-02T06:17:31;7.85;;;2.17;;
22778;SDS011;11556;51.194;3.800;2024-03-02T06:20:00;21.15;;;6.85;;
22778;SDS011;11556;51.194;3.800;2024-03-02T06:22:25;19.00;;;5.60;;
22778;SDS011;11556;51.194;3.800;2024-03-02T06:24:51;43.63;;;15.02;;
22778;SDS011;11556;51.194;3.800;2024-03-02T06:27:16;27.55;;;10.07;;
22778;SDS011;11556;51.194;3.800;2024-03-02T06:29:42;8.77;;;3.75;;
22778;SDS011;11556;51.194;3.800;2024-03-02T06:32:08;15.50;;;6.07;;
22778;SDS011;11556;51.194;3.800;2024-03-02T06:34:33;20.40;;;6.90;;
22778;SDS011;11556;51.194;3.800;2024-03-02T06:36:59;5.25;;;1.85;;
22778;SDS011;11556;51.194;3.800;2024-03-02T06:39:25;8.73;;;3.22;;
22778;SDS011;11556;51.194;3.800;2024-03-02T06:41:51;14.35;;;5.47;;
22778;SDS011;11556;51.194;3.800;2024-03-02T06:44:17;8.77;;;2.00;;
22778;SDS011;11556;51.194;3.800;2024-03-02T06:46:42;7.30;;;2.65;;
22778;SDS011;11556;51.194;3.800;2024-03-02T06:49:08;6.60;;;1.83;;
22778;SDS011;11556;51.194;3.800;2024-03-02T06:51:35;10.55;;;3.33;;
22778;SDS011;11556;51.194;3.800;2024-03-02T06:54:01;6.07;;;3.08;;
22778;SDS011;11556;51.194;3.800;2024-03-02T06:56:27;12.82;;;4.30;;
22778;SDS011;11556;51.194;3.800;2024-03-02T06:58:52;11.35;;;4.07;;
22778;SDS011;11556;51.194;3.800;2024-03-02T07:01:18;4.90;;;2.17;;
22778;SDS011;11556;51.194;3.800;2024-03-02T07:03:45;7.55;;;2.20;;
22778;SDS011;11556;51.194;3.800;2024-03-02T07:06:11;7.38;;;1.58;;
22778;SDS011;11556;51.194;3.800;2024-03-02T07:08:36;5.93;;;1.85;;
22778;SDS011;11556;51.194;3.800;2024-03-02T07:11:02;6.28;;;1.60;;
22778;SDS011;11556;51.194;3.800;2024-03-02T07:13:27;5.72;;;1.70;;
22778;SDS011;11556;51.194;3.800;2024-03-02T07:15:53;3.38;;;1.45;;
22778;SDS011;11556;51.194;3.800;2024-03-02T07:18:28;8.93;;;1.60;;
22778;SDS011;11556;51.194;3.800;2024-03-02T07:20:56;5.45;;;1.92;;
22778;SDS011;11556;51.194;3.800;2024-03-02T07:23:26;9.85;;;1.65;;
22778;SDS011;11556;51.194;3.800;2024-03-02T07:25:52;5.35;;;1.70;;
22778;SDS011;11556;51.194;3.800;2024-03-02T07:28:22;6.80;;;1.60;;
22778;SDS011;11556;51.194;3.800;2024-03-02T07:30:57;7.28;;;1.70;;
22778;SDS011;11556;51.194;3.800;2024-03-02T07:33:26;4.38;;;1.30;;
22778;SDS011;11556;51.194;3.800;2024-03-02T07:35:52;6.35;;;1.23;;
22778;SDS011;11556;51.194;3.800;2024-03-02T07:38:19;6.72;;;1.80;;
22778;SDS011;11556;51.194;3.800;2024-03-02T07:40:45;8.05;;;1.40;;
22778;SDS011;11556;51.194;3.800;2024-03-02T07:43:10;9.88;;;1.77;;
22778;SDS011;11556;51.194;3.800;2024-03-02T07:45:36;5.68;;;2.20;;
22778;SDS011;11556;51.194;3.800;2024-03-02T07:48:02;7.30;;;1.80;;
22778;SDS011;11556;51.194;3.800;2024-03-02T07:50:29;6.53;;;1.88;;
22778;SDS011;11556;51.194;3.800;2024-03-02T07:52:55;7.43;;;1.60;;
22778;SDS011;11556;51.194;3.800;2024-03-02T07:55:21;6.03;;;1.60;;
22778;SDS011;11556;51.194;3.800;2024-03-02T07:57:48;6.55;;;1.50;;
22778;SDS011;11556;51.194;3.800;2024-03-02T08:00:15;6.32;;;1.48;;
22778;SDS011;11556;51.194;3.800;2024-03-02T08:02:40;6.47;;;1.80;;
22778;SDS011;11556;51.194;3.800;2024-03-02T08:05:07;4.70;;;1.40;;
22778;SDS011;11556;51.194;3.800;2024-03-02T08:07:34;5.28;;;1.70;;
22778;SDS011;11556;51.194;3.800;2024-03-02T08:10:00;5.20;;;1.25;;
22778;SDS011;11556;51.194;3.800;2024-03-02T08:12:25;7.03;;;1.70;;
22778;SDS011;11556;51.194;3.800;2024-03-02T08:14:51;6.18;;;1.52;;
22778;SDS011;11556;51.194;3.800;2024-03-02T08:17:16;5.03;;;1.20;;
22778;SDS011;11556;51.194;3.800;2024-03-02T08:19:42;7.53;;;1.55;;
22778;SDS011;11556;51.194;3.800;2024-03-02T08:22:09;7.50;;;1.48;;
22778;SDS011;11556;51.194;3.800;2024-03-02T08:24:35;7.78;;;1.42;;
22778;SDS011;11556;51.194;3.800;2024-03-02T08:27:01;11.63;;;1.90;;
22778;SDS011;11556;51.194;3.800;2024-03-02T08:29:27;5.82;;;1.90;;
22778;SDS011;11556;51.194;3.800;2024-03-02T08:31:52;8.88;;;1.55;;
22778;SDS011;11556;51.194;3.800;2024-03-02T08:34:18;6.30;;;1.50;;
22778;SDS011;11556;51.194;3.800;2024-03-02T08:36:44;10.85;;;1.90;;
22778;SDS011;11556;51.194;3.800;2024-03-02T08:39:11;4.68;;;1.50;;
22778;SDS011;11556;51.194;3.800;2024-03-02T08:41:41;3.40;;;1.15;;
22778;SDS011;11556;51.194;3.800;2024-03-02T08:44:09;3.85;;;1.45;;
22778;SDS011;11556;51.194;3.800;2024-03-02T08:46:35;4.35;;;1.13;;
22778;SDS011;11556;51.194;3.800;2024-03-02T08:49:01;7.45;;;1.60;;
22778;SDS011;11556;51.194;3.800;2024-03-02T08:51:27;5.32;;;1.70;;
22778;SDS011;11556;51.194;3.800;2024-03-02T08:53:52;8.00;;;1.35;;
22778;SDS011;11556;51.194;3.800;2024-03-02T08:56:18;6.70;;;1.40;;
22778;SDS011;11556;51.194;3.800;2024-03-02T08:58:45;7.25;;;1.50;;
22778;SDS011;11556;51.194;3.800;2024-03-02T09:01:11;5.38;;;1.10;;
22778;SDS011;11556;51.194;3.800;2024-03-02T09:03:37;8.18;;;1.50;;
22778;SDS011;11556;51.194;3.800;2024-03-02T09:06:03;3.67;;;1.00;;
22778;SDS011;11556;51.194;3.800;2024-03-02T09:08:28;13.50;;;2.80;;
22778;SDS011;11556;51.194;3.800;2024-03-02T09:10:55;7.70;;;1.90;;
22778;SDS011;11556;51.194;3.800;2024-03-02T09:13:21;11.07;;;2.55;;
22778;SDS011;11556;51.194;3.800;2024-03-02T09:15:47;7.03;;;1.60;;
22778;SDS011;11556;51.194;3.800;2024-03-02T09:18:13;5.80;;;1.55;;
22778;SDS011;11556;51.194;3.800;2024-03-02T09:20:38;8.30;;;1.70;;
22778;SDS011;11556;51.194;3.800;2024-03-02T09:23:05;9.70;;;1.60;;
22778;SDS011;11556;51.194;3.800;2024-03-02T09:25:31;24.42;;;8.68;;
22778;SDS011;11556;51.194;3.800;2024-03-02T09:27:56;6.88;;;2.38;;
22778;SDS011;11556;51.194;3.800;2024-03-02T09:30:22;13.05;;;2.30;;
22778;SDS011;11556;51.194;3.800;2024-03-02T09:32:48;10.02;;;1.88;;
22778;SDS011;11556;51.194;3.800;2024-03-02T09:35:13;6.35;;;1.67;;
22778;SDS011;11556;51.194;3.800;2024-03-02T09:37:39;4.75;;;1.42;;
22778;SDS011;11556;51.194;3.800;2024-03-02T09:40:05;8.57;;;1.40;;
22778;SDS011;11556;51.194;3.800;2024-03-02T09:42:31;6.40;;;1.50;;
22778;SDS011;11556;51.194;3.800;2024-03-02T09:44:57;9.55;;;1.70;;
22778;SDS011;11556;51.194;3.800;2024-03-02T09:47:24;5.75;;;1.85;;
22778;SDS011;11556;51.194;3.800;2024-03-02T09:49:49;11.00;;;1.70;;
22778;SDS011;11556;51.194;3.800;2024-03-02T09:52:15;7.90;;;1.40;;
22778;SDS011;11556;51.194;3.800;2024-03-02T09:54:41;6.68;;;1.73;;
22778;SDS011;11556;51.194;3.800;2024-03-02T09:57:07;7.20;;;1.60;;
22778;SDS011;11556;51.194;3.800;2024-03-02T09:59:32;5.78;;;1.42;;
22778;SDS011;11556;51.194;3.800;2024-03-02T10:01:59;5.90;;;1.40;;
22778;SDS011;11556;51.194;3.800;2024-03-02T10:04:25;9.85;;;1.85;;
22778;SDS011;11556;51.194;3.800;2024-03-02T10:06:55;7.78;;;1.55;;
22778;SDS011;11556;51.194;3.800;2024-03-02T10:09:41;6.03;;;1.60;;
22778;SDS011;11556;51.194;3.800;2024-03-02T10:12:08;7.82;;;1.67;;
22778;SDS011;11556;51.194;3.800;2024-03-02T10:14:35;9.02;;;1.60;;
22778;SDS011;11556;51.194;3.800;2024-03-02T10:17:05;17.90;;;6.00;;
22778;SDS011;11556;51.194;3.800;2024-03-02T10:19:33;14.13;;;3.20;;
22778;SDS011;11556;51.194;3.800;2024-03-02T10:22:00;11.07;;;2.00;;
22778;SDS011;11556;51.194;3.800;2024-03-02T10:24:27;9.43;;;1.40;;
22778;SDS011;11556;51.194;3.800;2024-03-02T10:26:59;9.93;;;2.03;;
22778;SDS011;11556;51.194;3.800;2024-03-02T10:29:25;9.43;;;1.73;;
22778;SDS011;11556;51.194;3.800;2024-03-02T10:31:53;10.15;;;1.77;;
22778;SDS011;11556;51.194;3.800;2024-03-02T10:34:19;7.25;;;1.52;;
22778;SDS011;11556;51.194;3.800;2024-03-02T10:36:47;8.68;;;1.80;;
22778;SDS011;11556;51.194;3.800;2024-03-02T10:39:13;10.77;;;1.70;;
22778;SDS011;11556;51.194;3.800;2024-03-02T10:41:39;8.48;;;1.65;;
22778;SDS011;11556;51.194;3.800;2024-03-02T10:44:06;5.78;;;1.70;;
22778;SDS011;11556;51.194;3.800;2024-03-02T10:46:35;9.00;;;1.25;;
22778;SDS011;11556;51.194;3.800;2024-03-02T10:49:02;7.55;;;1.90;;
22778;SDS011;11556;51.194;3.800;2024-03-02T10:51:32;7.40;;;1.65;;
22778;SDS011;11556;51.194;3.800;2024-03-02T10:53:59;10.25;;;1.60;;
22778;SDS011;11556;51.194;3.800;2024-03-02T10:56:29;10.05;;;2.25;;
22778;SDS011;11556;51.194;3.800;2024-03-02T10:59:06;8.50;;;1.65;;
22778;SDS011;11556;51.194;3.800;2024-03-02T11:01:46;9.57;;;1.60;;
22778;SDS011;11556;51.194;3.800;2024-03-02T11:04:16;7.05;;;1.55;;
22778;SDS011;11556;51.194;3.800;2024-03-02T11:06:46;8.95;;;1.67;;
22778;SDS011;11556;51.194;3.800;2024-03-02T11:09:14;8.88;;;1.60;;
22778;SDS011;11556;51.194;3.800;2024-03-02T11:11:43;9.05;;;1.50;;
22778;SDS011;11556;51.194;3.800;2024-03-02T11:14:16;10.05;;;1.73;;
22778;SDS011;11556;51.194;3.800;2024-03-02T11:16:44;8.70;;;1.60;;
22778;SDS011;11556;51.194;3.800;2024-03-02T11:19:13;10.38;;;1.77;;
22778;SDS011;11556;51.194;3.800;2024-03-02T11:21:41;8.52;;;1.20;;
22778;SDS011;11556;51.194;3.800;2024-03-02T11:27:01;5.28;;;1.45;;
22778;SDS011;11556;51.194;3.800;2024-03-02T11:32:20;8.45;;;1.38;;
22778;SDS011;11556;51.194;3.800;2024-03-02T11:34:49;7.15;;;1.60;;
22778;SDS011;11556;51.194;3.800;2024-03-02T11:37:16;6.05;;;1.00;;
22778;SDS011;11556;51.194;3.800;2024-03-02T11:39:46;5.22;;;1.13;;
22778;SDS011;11556;51.194;3.800;2024-03-02T11:42:13;6.53;;;1.17;;
22778;SDS011;11556;51.194;3.800;2024-03-02T11:44:41;7.78;;;1.10;;
22778;SDS011;11556;51.194;3.800;2024-03-02T11:47:08;4.72;;;1.10;;
22778;SDS011;11556;51.194;3.800;2024-03-02T11:49:40;6.80;;;1.42;;
22778;SDS011;11556;51.194;3.800;2024-03-02T11:52:08;7.07;;;1.77;;
22778;SDS011;11556;51.194;3.800;2024-03-02T11:54:36;10.70;;;2.28;;
22778;SDS011;11556;51.194;3.800;2024-03-02T11:57:06;7.68;;;1.25;;
22778;SDS011;11556;51.194;3.800;2024-03-02T11:59:33;11.00;;;5.63;;
22778;SDS011;11556;51.194;3.800;2024-03-02T12:02:00;5.78;;;1.38;;
22778;SDS011;11556;51.194;3.800;2024-03-02T12:04:26;7.75;;;1.15;;
22778;SDS011;11556;51.194;3.800;2024-03-02T12:06:55;9.95;;;1.35;;
22778;SDS011;11556;51.194;3.800;2024-03-02T12:09:22;9.05;;;1.52;;
22778;SDS011;11556;51.194;3.800;2024-03-02T12:11:47;6.05;;;1.42;;
22778;SDS011;11556;51.194;3.800;2024-03-02T12:14:13;7.65;;;2.15;;
22778;SDS011;11556;51.194;3.800;2024-03-02T12:16:38;7.82;;;1.48;;
22778;SDS011;11556;51.194;3.800;2024-03-02T12:19:08;8.10;;;1.30;;
22778;SDS011;11556;51.194;3.800;2024-03-02T12:21:34;6.07;;;1.67;;
22778;SDS011;11556;51.194;3.800;2024-03-02T12:23:59;12.18;;;1.88;;
22778;SDS011;11556;51.194;3.800;2024-03-02T12:26:26;39.95;;;17.50;;
22778;SDS011;11556;51.194;3.800;2024-03-02T12:28:52;11.82;;;4.22;;
22778;SDS011;11556;51.194;3.800;2024-03-02T12:31:17;7.70;;;2.28;;
22778;SDS011;11556;51.194;3.800;2024-03-02T12:33:43;8.55;;;1.45;;
22778;SDS011;11556;51.194;3.800;2024-03-02T12:36:09;8.45;;;1.38;;
22778;SDS011;11556;51.194;3.800;2024-03-02T12:38:37;8.57;;;1.40;;
22778;SDS011;11556;51.194;3.800;2024-03-02T12:41:02;10.60;;;1.85;;
22778;SDS011;11556;51.194;3.800;2024-03-02T12:43:30;8.95;;;1.58;;
22778;SDS011;11556;51.194;3.800;2024-03-02T12:45:56;8.63;;;1.48;;
22778;SDS011;11556;51.194;3.800;2024-03-02T12:48:23;6.03;;;1.30;;
22778;SDS011;11556;51.194;3.800;2024-03-02T12:50:49;6.32;;;1.70;;
22778;SDS011;11556;51.194;3.800;2024-03-02T12:53:15;7.40;;;1.30;;
22778;SDS011;11556;51.194;3.800;2024-03-02T12:55:41;7.93;;;1.70;;
22778;SDS011;11556;51.194;3.800;2024-03-02T12:58:15;9.30;;;1.90;;
22778;SDS011;11556;51.194;3.800;2024-03-02T13:00:42;7.70;;;1.35;;
22778;SDS011;11556;51.194;3.800;2024-03-02T13:03:07;6.53;;;1.92;;
22778;SDS011;11556;51.194;3.800;2024-03-02T13:05:33;7.13;;;1.73;;
22778;SDS011;11556;51.194;3.800;2024-03-02T13:08:00;9.98;;;2.10;;
22778;SDS011;11556;51.194;3.800;2024-03-02T13:10:28;9.85;;;1.90;;
22778;SDS011;11556;51.194;3.800;2024-03-02T13:12:54;8.95;;;1.83;;
22778;SDS011;11556;51.194;3.800;2024-03-02T13:15:21;8.38;;;1.88;;
22778;SDS011;11556;51.194;3.800;2024-03-02T13:17:46;11.25;;;2.00;;
22778;SDS011;11556;51.194;3.800;2024-03-02T13:20:12;8.77;;;2.00;;
22778;SDS011;11556;51.194;3.800;2024-03-02T13:22:39;8.05;;;2.13;;
22778;SDS011;11556;51.194;3.800;2024-03-02T13:25:05;8.40;;;2.17;;
22778;SDS011;11556;51.194;3.800;2024-03-02T13:27:31;7.72;;;1.65;;
22778;SDS011;11556;51.194;3.800;2024-03-02T13:29:57;9.30;;;2.35;;
22778;SDS011;11556;51.194;3.800;2024-03-02T13:32:23;8.80;;;1.80;;
22778;SDS011;11556;51.194;3.800;2024-03-02T13:34:50;8.48;;;1.80;;
22778;SDS011;11556;51.194;3.800;2024-03-02T13:37:16;11.00;;;2.03;;
22778;SDS011;11556;51.194;3.800;2024-03-02T13:39:42;10.00;;;1.65;;
22778;SDS011;11556;51.194;3.800;2024-03-02T13:42:11;7.85;;;2.65;;
22778;SDS011;11556;51.194;3.800;2024-03-02T13:44:38;12.98;;;2.92;;
22778;SDS011;11556;51.194;3.800;2024-03-02T13:47:04;15.48;;;4.05;;
22778;SDS011;11556;51.194;3.800;2024-03-02T13:49:30;7.82;;;2.05;;
22778;SDS011;11556;51.194;3.800;2024-03-02T13:52:02;6.80;;;1.83;;
22778;SDS011;11556;51.194;3.800;2024-03-02T13:54:30;10.35;;;2.05;;
22778;SDS011;11556;51.194;3.800;2024-03-02T13:56:56;7.88;;;2.58;;
22778;SDS011;11556;51.194;3.800;2024-03-02T13:59:23;7.95;;;1.77;;
22778;SDS011;11556;51.194;3.800;2024-03-02T14:01:50;5.40;;;1.45;;
22778;SDS011;11556;51.194;3.800;2024-03-02T14:04:16;9.35;;;1.67;;
22778;SDS011;11556;51.194;3.800;2024-03-02T14:06:42;9.75;;;3.17;;
22778;SDS011;11556;51.194;3.800;2024-03-02T14:09:08;10.20;;;2.92;;
22778;SDS011;11556;51.194;3.800;2024-03-02T14:11:34;7.53;;;2.58;;
22778;SDS011;11556;51.194;3.800;2024-03-02T14:14:00;10.98;;;2.75;;
22778;SDS011;11556;51.194;3.800;2024-03-02T14:16:26;9.55;;;2.00;;
22778;SDS011;11556;51.194;3.800;2024-03-02T14:18:52;6.50;;;1.65;;
22778;SDS011;11556;51.194;3.800;2024-03-02T14:21:18;9.55;;;2.15;;
22778;SDS011;11556;51.194;3.800;2024-03-02T14:23:43;8.80;;;1.65;;
22778;SDS011;11556;51.194;3.800;2024-03-02T14:26:09;6.75;;;1.75;;
22778;SDS011;11556;51.194;3.800;2024-03-02T14:28:35;7.30;;;1.65;;
22778;SDS011;11556;51.194;3.800;2024-03-02T14:31:00;7.78;;;2.22;;
22778;SDS011;11556;51.194;3.800;2024-03-02T14:33:27;8.18;;;1.92;;
22778;SDS011;11556;51.194;3.800;2024-03-02T14:35:53;7.80;;;1.90;;
22778;SDS011;11556;51.194;3.800;2024-03-02T14:38:19;7.50;;;2.47;;
22778;SDS011;11556;51.194;3.800;2024-03-02T14:40:44;5.28;;;1.95;;
22778;SDS011;11556;51.194;3.800;2024-03-02T14:43:10;11.98;;;3.05;;
22778;SDS011;11556;51.194;3.800;2024-03-02T14:45:36;23.85;;;10.50;;
22778;SDS011;11556;51.194;3.800;2024-03-02T14:48:02;6.38;;;1.88;;